22MI weather

Munson Medical Center Heliport
Traverse City, Michigan, United States

Public forecast

Using degrees Fahrenheit for public forecast. Weather courtesy of forecast.io.

METAR (pilot weather report)

Closest report is Cherry Capital Airport, 2.9 nm (5.3 km) ESE. Retrieved 2019/06/19 23:53 UTC (34 minutes ago):

KTVC 192353Z 03006KT 10SM FEW050 FEW160 OVC250 17/13 A2974 RMK AO2 SLP070 T01720128 10189 20167 56006

TAF (pilot weather forecast)

Forecast is more than 12 hours old.

Closest forecast is Cherry Capital Airport, 2.9 nm (5.3 km) ESE. Retrieved 2019/06/19 00:22 UTC (1 day ago):

TAF KTVC 192320Z 2000/2024 VRB04KT P6SM SCT200 FM200300 00000KT P6SM BKN025 FM200600 00000KT P6SM OVC150 FM201000 00000KT P6SM BKN040 FM201700 04006KT P6SM BKN120